sensor_id;sensor_type;location;lat;lon;timestamp;temperature;humidity
46752;DHT22;32497;48.936;9.270;2023-04-21T00:03:06;4.60;93.20
46752;DHT22;32497;48.936;9.270;2023-04-21T00:08:17;4.60;93.30
46752;DHT22;32497;48.936;9.270;2023-04-21T00:13:25;4.60;93.20
46752;DHT22;32497;48.936;9.270;2023-04-21T00:18:35;4.60;93.40
46752;DHT22;32497;48.936;9.270;2023-04-21T00:23:40;4.60;93.40
46752;DHT22;32497;48.936;9.270;2023-04-21T00:28:48;4.60;93.50
46752;DHT22;32497;48.936;9.270;2023-04-21T00:33:49;4.60;93.40
46752;DHT22;32497;48.936;9.270;2023-04-21T00:39:12;4.60;93.50
46752;DHT22;32497;48.936;9.270;2023-04-21T00:44:17;4.60;93.60
46752;DHT22;32497;48.936;9.270;2023-04-21T00:49:31;4.60;93.70
46752;DHT22;32497;48.936;9.270;2023-04-21T00:54:34;4.70;93.80
46752;DHT22;32497;48.936;9.270;2023-04-21T00:59:36;4.70;93.80
46752;DHT22;32497;48.936;9.270;2023-04-21T01:04:45;4.70;93.80
46752;DHT22;32497;48.936;9.270;2023-04-21T01:09:49;4.70;93.70
46752;DHT22;32497;48.936;9.270;2023-04-21T01:15:05;4.60;93.70
46752;DHT22;32497;48.936;9.270;2023-04-21T01:20:20;4.60;93.70
46752;DHT22;32497;48.936;9.270;2023-04-21T01:31:26;4.40;93.80
46752;DHT22;32497;48.936;9.270;2023-04-21T01:36:36;4.40;93.70
46752;DHT22;32497;48.936;9.270;2023-04-21T01:41:37;4.40;93.70
46752;DHT22;32497;48.936;9.270;2023-04-21T01:52:18;4.20;93.50
46752;DHT22;32497;48.936;9.270;2023-04-21T01:57:20;4.10;93.50
46752;DHT22;32497;48.936;9.270;2023-04-21T02:02:21;4.10;93.50
46752;DHT22;32497;48.936;9.270;2023-04-21T02:07:30;3.90;93.30
46752;DHT22;32497;48.936;9.270;2023-04-21T02:12:43;3.90;93.40
46752;DHT22;32497;48.936;9.270;2023-04-21T02:17:44;3.90;93.60
46752;DHT22;32497;48.936;9.270;2023-04-21T02:23:02;3.80;93.60
46752;DHT22;32497;48.936;9.270;2023-04-21T02:28:21;3.70;93.70
46752;DHT22;32497;48.936;9.270;2023-04-21T02:33:25;3.60;93.50
46752;DHT22;32497;48.936;9.270;2023-04-21T02:38:31;3.60;93.40
46752;DHT22;32497;48.936;9.270;2023-04-21T02:50:01;3.50;93.70
46752;DHT22;32497;48.936;9.270;2023-04-21T02:55:09;3.50;93.70
46752;DHT22;32497;48.936;9.270;2023-04-21T03:00:17;3.50;93.90
46752;DHT22;32497;48.936;9.270;2023-04-21T03:05:21;3.60;94.00
46752;DHT22;32497;48.936;9.270;2023-04-21T03:10:39;3.50;93.80
46752;DHT22;32497;48.936;9.270;2023-04-21T03:15:40;3.40;93.80
46752;DHT22;32497;48.936;9.270;2023-04-21T03:21:00;3.30;93.60
46752;DHT22;32497;48.936;9.270;2023-04-21T03:26:07;3.20;93.20
46752;DHT22;32497;48.936;9.270;2023-04-21T03:31:42;3.00;93.10
46752;DHT22;32497;48.936;9.270;2023-04-21T03:42:50;3.00;93.40
46752;DHT22;32497;48.936;9.270;2023-04-21T03:48:00;3.10;93.70
46752;DHT22;32497;48.936;9.270;2023-04-21T03:53:16;3.20;93.90
46752;DHT22;32497;48.936;9.270;2023-04-21T03:58:28;3.20;93.80
46752;DHT22;32497;48.936;9.270;2023-04-21T04:03:35;3.20;93.90
46752;DHT22;32497;48.936;9.270;2023-04-21T04:08:42;3.10;93.90
46752;DHT22;32497;48.936;9.270;2023-04-21T04:13:51;3.10;93.90
46752;DHT22;32497;48.936;9.270;2023-04-21T04:18:58;3.10;93.70
46752;DHT22;32497;48.936;9.270;2023-04-21T04:23:59;3.10;93.40
46752;DHT22;32497;48.936;9.270;2023-04-21T04:29:05;3.10;93.30
46752;DHT22;32497;48.936;9.270;2023-04-21T04:34:06;3.10;93.20
46752;DHT22;32497;48.936;9.270;2023-04-21T04:45:43;3.10;92.90
46752;DHT22;32497;48.936;9.270;2023-04-21T04:50:44;3.00;92.70
46752;DHT22;32497;48.936;9.270;2023-04-21T04:55:46;2.90;92.70
46752;DHT22;32497;48.936;9.270;2023-04-21T05:00:50;3.10;93.00
46752;DHT22;32497;48.936;9.270;2023-04-21T05:05:52;3.10;93.00
46752;DHT22;32497;48.936;9.270;2023-04-21T05:10:54;3.30;93.20
46752;DHT22;32497;48.936;9.270;2023-04-21T05:16:00;3.50;93.40
46752;DHT22;32497;48.936;9.270;2023-04-21T05:21:38;3.80;93.60
46752;DHT22;32497;48.936;9.270;2023-04-21T05:26:39;4.00;93.50
46752;DHT22;32497;48.936;9.270;2023-04-21T05:31:49;4.20;93.40
46752;DHT22;32497;48.936;9.270;2023-04-21T05:37:29;4.30;93.00
46752;DHT22;32497;48.936;9.270;2023-04-21T05:42:33;4.40;92.80
46752;DHT22;32497;48.936;9.270;2023-04-21T05:47:35;4.40;92.60
46752;DHT22;32497;48.936;9.270;2023-04-21T05:52:36;4.60;92.90
46752;DHT22;32497;48.936;9.270;2023-04-21T05:57:38;4.70;93.00
46752;DHT22;32497;48.936;9.270;2023-04-21T06:02:40;4.60;92.50
46752;DHT22;32497;48.936;9.270;2023-04-21T06:07:41;4.70;92.60
46752;DHT22;32497;48.936;9.270;2023-04-21T06:12:42;4.80;92.40
46752;DHT22;32497;48.936;9.270;2023-04-21T06:17:45;5.10;92.90
46752;DHT22;32497;48.936;9.270;2023-04-21T06:22:46;4.90;91.90
46752;DHT22;32497;48.936;9.270;2023-04-21T06:27:47;5.10;93.00
46752;DHT22;32497;48.936;9.270;2023-04-21T06:32:49;5.40;92.60
46752;DHT22;32497;48.936;9.270;2023-04-21T06:37:51;6.10;93.00
46752;DHT22;32497;48.936;9.270;2023-04-21T06:42:52;6.40;92.10
46752;DHT22;32497;48.936;9.270;2023-04-21T06:47:54;6.80;92.50
46752;DHT22;32497;48.936;9.270;2023-04-21T06:52:55;7.10;91.00
46752;DHT22;32497;48.936;9.270;2023-04-21T06:57:56;6.50;91.10
46752;DHT22;32497;48.936;9.270;2023-04-21T07:02:59;7.40;91.90
46752;DHT22;32497;48.936;9.270;2023-04-21T07:08:00;7.60;89.90
46752;DHT22;32497;48.936;9.270;2023-04-21T07:13:01;8.10;90.20
46752;DHT22;32497;48.936;9.270;2023-04-21T07:18:03;8.40;89.50
46752;DHT22;32497;48.936;9.270;2023-04-21T07:23:04;8.90;88.10
46752;DHT22;32497;48.936;9.270;2023-04-21T07:28:05;9.10;88.40
46752;DHT22;32497;48.936;9.270;2023-04-21T07:33:08;9.50;87.80
46752;DHT22;32497;48.936;9.270;2023-04-21T07:38:09;9.40;86.00
46752;DHT22;32497;48.936;9.270;2023-04-21T07:43:10;9.60;84.50
46752;DHT22;32497;48.936;9.270;2023-04-21T07:48:13;9.90;86.90
46752;DHT22;32497;48.936;9.270;2023-04-21T07:53:14;10.20;85.10
46752;DHT22;32497;48.936;9.270;2023-04-21T07:58:15;10.40;82.50
46752;DHT22;32497;48.936;9.270;2023-04-21T08:03:18;10.20;82.50
46752;DHT22;32497;48.936;9.270;2023-04-21T08:08:19;10.40;81.80
46752;DHT22;32497;48.936;9.270;2023-04-21T08:13:20;10.50;79.90
46752;DHT22;32497;48.936;9.270;2023-04-21T08:18:22;11.20;79.20
46752;DHT22;32497;48.936;9.270;2023-04-21T08:23:23;11.40;76.90
46752;DHT22;32497;48.936;9.270;2023-04-21T08:28:24;11.60;75.70
46752;DHT22;32497;48.936;9.270;2023-04-21T08:33:27;11.50;73.90
46752;DHT22;32497;48.936;9.270;2023-04-21T08:38:28;12.30;73.80
46752;DHT22;32497;48.936;9.270;2023-04-21T08:43:29;13.20;73.70
46752;DHT22;32497;48.936;9.270;2023-04-21T08:48:34;13.20;73.00
46752;DHT22;32497;48.936;9.270;2023-04-21T08:53:36;13.20;71.10
46752;DHT22;32497;48.936;9.270;2023-04-21T08:58:37;13.00;71.40
46752;DHT22;32497;48.936;9.270;2023-04-21T09:03:39;12.70;72.40
46752;DHT22;32497;48.936;9.270;2023-04-21T09:08:42;12.80;73.30
46752;DHT22;32497;48.936;9.270;2023-04-21T09:13:43;13.00;72.80
46752;DHT22;32497;48.936;9.270;2023-04-21T09:18:46;13.30;70.00
46752;DHT22;32497;48.936;9.270;2023-04-21T09:23:48;13.20;71.70
46752;DHT22;32497;48.936;9.270;2023-04-21T09:28:51;13.40;71.50
46752;DHT22;32497;48.936;9.270;2023-04-21T09:33:54;13.50;72.90
46752;DHT22;32497;48.936;9.270;2023-04-21T09:38:56;13.50;71.00
46752;DHT22;32497;48.936;9.270;2023-04-21T09:43:58;13.70;69.80
46752;DHT22;32497;48.936;9.270;2023-04-21T09:49:01;13.70;70.40
46752;DHT22;32497;48.936;9.270;2023-04-21T09:54:09;13.60;69.80
46752;DHT22;32497;48.936;9.270;2023-04-21T09:59:18;13.80;69.90
46752;DHT22;32497;48.936;9.270;2023-04-21T10:04:21;14.20;70.60
46752;DHT22;32497;48.936;9.270;2023-04-21T10:09:29;14.60;68.80
46752;DHT22;32497;48.936;9.270;2023-04-21T10:14:31;15.20;68.20
46752;DHT22;32497;48.936;9.270;2023-04-21T10:19:34;15.90;65.60
46752;DHT22;32497;48.936;9.270;2023-04-21T10:24:36;16.00;64.20
46752;DHT22;32497;48.936;9.270;2023-04-21T10:29:38;16.70;59.80
46752;DHT22;32497;48.936;9.270;2023-04-21T10:34:41;17.40;57.70
46752;DHT22;32497;48.936;9.270;2023-04-21T10:39:44;18.60;54.40
46752;DHT22;32497;48.936;9.270;2023-04-21T10:44:51;19.20;52.20
46752;DHT22;32497;48.936;9.270;2023-04-21T10:49:55;19.90;51.60
46752;DHT22;32497;48.936;9.270;2023-04-21T10:55:07;20.40;51.40
46752;DHT22;32497;48.936;9.270;2023-04-21T11:00:09;21.70;46.90
46752;DHT22;32497;48.936;9.270;2023-04-21T11:05:12;22.00;45.10
46752;DHT22;32497;48.936;9.270;2023-04-21T11:10:14;20.40;49.20
46752;DHT22;32497;48.936;9.270;2023-04-21T11:15:15;20.20;51.50
46752;DHT22;32497;48.936;9.270;2023-04-21T11:20:17;20.40;51.60
46752;DHT22;32497;48.936;9.270;2023-04-21T11:25:18;22.20;47.90
46752;DHT22;32497;48.936;9.270;2023-04-21T11:30:19;22.00;49.90
46752;DHT22;32497;48.936;9.270;2023-04-21T11:35:22;22.20;48.10
46752;DHT22;32497;48.936;9.270;2023-04-21T11:40:23;22.60;48.20
46752;DHT22;32497;48.936;9.270;2023-04-21T11:45:24;21.30;47.60
46752;DHT22;32497;48.936;9.270;2023-04-21T11:50:32;20.30;49.40
46752;DHT22;32497;48.936;9.270;2023-04-21T11:55:34;22.50;48.00
46752;DHT22;32497;48.936;9.270;2023-04-21T12:00:35;23.50;44.50
46752;DHT22;32497;48.936;9.270;2023-04-21T12:05:37;24.80;40.40
46752;DHT22;32497;48.936;9.270;2023-04-21T12:10:43;26.20;38.90
46752;DHT22;32497;48.936;9.270;2023-04-21T12:15:45;25.70;39.60
46752;DHT22;32497;48.936;9.270;2023-04-21T12:20:51;26.70;38.70
46752;DHT22;32497;48.936;9.270;2023-04-21T12:25:53;27.30;37.40
46752;DHT22;32497;48.936;9.270;2023-04-21T12:30:54;26.70;35.80
46752;DHT22;32497;48.936;9.270;2023-04-21T12:35:56;27.60;36.70
46752;DHT22;32497;48.936;9.270;2023-04-21T12:40:57;27.50;35.90
46752;DHT22;32497;48.936;9.270;2023-04-21T12:45:59;27.00;34.90
46752;DHT22;32497;48.936;9.270;2023-04-21T12:51:01;24.70;38.20
46752;DHT22;32497;48.936;9.270;2023-04-21T12:56:02;25.30;40.90
46752;DHT22;32497;48.936;9.270;2023-04-21T13:01:04;26.50;37.50
46752;DHT22;32497;48.936;9.270;2023-04-21T13:06:07;27.60;37.10
46752;DHT22;32497;48.936;9.270;2023-04-21T13:11:08;28.20;34.40
46752;DHT22;32497;48.936;9.270;2023-04-21T13:16:10;28.70;35.20
46752;DHT22;32497;48.936;9.270;2023-04-21T13:21:13;27.20;36.30
46752;DHT22;32497;48.936;9.270;2023-04-21T13:26:14;27.40;36.00
46752;DHT22;32497;48.936;9.270;2023-04-21T13:31:15;27.90;36.20
46752;DHT22;32497;48.936;9.270;2023-04-21T13:36:18;28.00;35.10
46752;DHT22;32497;48.936;9.270;2023-04-21T13:41:19;28.70;35.30
46752;DHT22;32497;48.936;9.270;2023-04-21T13:46:20;27.90;36.30
46752;DHT22;32497;48.936;9.270;2023-04-21T13:51:22;28.60;34.70
46752;DHT22;32497;48.936;9.270;2023-04-21T13:56:24;29.60;32.60
46752;DHT22;32497;48.936;9.270;2023-04-21T14:01:25;28.20;32.10
46752;DHT22;32497;48.936;9.270;2023-04-21T14:06:27;28.60;34.90
46752;DHT22;32497;48.936;9.270;2023-04-21T14:11:28;30.00;30.30
46752;DHT22;32497;48.936;9.270;2023-04-21T14:16:30;30.00;31.00
46752;DHT22;32497;48.936;9.270;2023-04-21T14:21:32;29.60;30.80
46752;DHT22;32497;48.936;9.270;2023-04-21T14:26:33;29.30;31.00
46752;DHT22;32497;48.936;9.270;2023-04-21T14:31:34;29.20;31.50
46752;DHT22;32497;48.936;9.270;2023-04-21T14:36:37;29.90;29.90
46752;DHT22;32497;48.936;9.270;2023-04-21T14:41:38;29.20;32.70
46752;DHT22;32497;48.936;9.270;2023-04-21T14:46:39;29.20;30.30
46752;DHT22;32497;48.936;9.270;2023-04-21T14:51:42;30.10;30.50
46752;DHT22;32497;48.936;9.270;2023-04-21T14:56:43;28.10;31.30
46752;DHT22;32497;48.936;9.270;2023-04-21T15:01:44;28.40;31.40
46752;DHT22;32497;48.936;9.270;2023-04-21T15:06:46;29.20;31.90
46752;DHT22;32497;48.936;9.270;2023-04-21T15:11:47;29.20;31.10
46752;DHT22;32497;48.936;9.270;2023-04-21T15:16:48;29.60;30.10
46752;DHT22;32497;48.936;9.270;2023-04-21T15:21:51;28.40;32.50
46752;DHT22;32497;48.936;9.270;2023-04-21T15:26:52;28.40;30.50
46752;DHT22;32497;48.936;9.270;2023-04-21T15:31:53;27.60;33.10
46752;DHT22;32497;48.936;9.270;2023-04-21T15:36:56;28.10;33.50
46752;DHT22;32497;48.936;9.270;2023-04-21T15:41:57;27.80;32.30
46752;DHT22;32497;48.936;9.270;2023-04-21T15:46:58;25.60;36.50
46752;DHT22;32497;48.936;9.270;2023-04-21T15:52:01;25.70;36.80
46752;DHT22;32497;48.936;9.270;2023-04-21T15:57:02;25.10;38.20
46752;DHT22;32497;48.936;9.270;2023-04-21T16:02:04;24.30;36.50
46752;DHT22;32497;48.936;9.270;2023-04-21T16:07:06;23.70;38.90
46752;DHT22;32497;48.936;9.270;2023-04-21T16:12:08;21.70;41.50
46752;DHT22;32497;48.936;9.270;2023-04-21T16:17:09;21.00;42.80
46752;DHT22;32497;48.936;9.270;2023-04-21T16:22:11;20.20;45.60
46752;DHT22;32497;48.936;9.270;2023-04-21T16:27:12;19.60;47.90
46752;DHT22;32497;48.936;9.270;2023-04-21T16:32:14;19.10;49.70
46752;DHT22;32497;48.936;9.270;2023-04-21T16:37:16;19.10;50.00
46752;DHT22;32497;48.936;9.270;2023-04-21T16:42:17;19.00;50.90
46752;DHT22;32497;48.936;9.270;2023-04-21T16:47:18;18.80;52.40
46752;DHT22;32497;48.936;9.270;2023-04-21T16:52:21;19.00;52.40
46752;DHT22;32497;48.936;9.270;2023-04-21T16:57:22;18.80;53.50
46752;DHT22;32497;48.936;9.270;2023-04-21T17:02:23;18.50;52.90
46752;DHT22;32497;48.936;9.270;2023-04-21T17:07:26;18.30;53.80
46752;DHT22;32497;48.936;9.270;2023-04-21T17:12:27;18.10;56.70
46752;DHT22;32497;48.936;9.270;2023-04-21T17:17:33;17.80;58.00
46752;DHT22;32497;48.936;9.270;2023-04-21T17:22:40;17.60;57.00
46752;DHT22;32497;48.936;9.270;2023-04-21T17:27:42;17.20;57.90
46752;DHT22;32497;48.936;9.270;2023-04-21T17:32:43;16.80;60.40
46752;DHT22;32497;48.936;9.270;2023-04-21T17:37:45;16.50;60.80
46752;DHT22;32497;48.936;9.270;2023-04-21T17:42:46;16.20;61.90
46752;DHT22;32497;48.936;9.270;2023-04-21T17:47:56;16.10;62.90
46752;DHT22;32497;48.936;9.270;2023-04-21T17:52:59;16.00;63.00
46752;DHT22;32497;48.936;9.270;2023-04-21T17:58:06;16.30;62.90
46752;DHT22;32497;48.936;9.270;2023-04-21T18:03:23;15.90;70.30
46752;DHT22;32497;48.936;9.270;2023-04-21T18:08:52;15.40;73.70
46752;DHT22;32497;48.936;9.270;2023-04-21T18:13:53;15.20;73.30
46752;DHT22;32497;48.936;9.270;2023-04-21T18:24:11;15.10;71.00
46752;DHT22;32497;48.936;9.270;2023-04-21T18:29:15;15.20;69.70
46752;DHT22;32497;48.936;9.270;2023-04-21T18:34:19;15.20;69.80
46752;DHT22;32497;48.936;9.270;2023-04-21T18:39:50;15.20;70.60
46752;DHT22;32497;48.936;9.270;2023-04-21T18:45:13;15.10;72.10
46752;DHT22;32497;48.936;9.270;2023-04-21T18:50:14;14.90;72.60
46752;DHT22;32497;48.936;9.270;2023-04-21T18:55:35;14.70;74.60
46752;DHT22;32497;48.936;9.270;2023-04-21T19:00:45;14.40;76.10
46752;DHT22;32497;48.936;9.270;2023-04-21T19:05:49;14.50;72.20
46752;DHT22;32497;48.936;9.270;2023-04-21T19:10:55;14.50;72.70
46752;DHT22;32497;48.936;9.270;2023-04-21T19:16:02;14.30;75.80
46752;DHT22;32497;48.936;9.270;2023-04-21T19:21:04;14.10;75.60
46752;DHT22;32497;48.936;9.270;2023-04-21T19:32:39;14.00;73.50
46752;DHT22;32497;48.936;9.270;2023-04-21T19:37:52;13.80;74.30
46752;DHT22;32497;48.936;9.270;2023-04-21T19:48:11;13.60;72.60
46752;DHT22;32497;48.936;9.270;2023-04-21T19:53:13;13.50;72.60
46752;DHT22;32497;48.936;9.270;2023-04-21T19:58:14;13.50;71.70
46752;DHT22;32497;48.936;9.270;2023-04-21T20:03:16;13.50;70.70
46752;DHT22;32497;48.936;9.270;2023-04-21T20:08:17;13.80;71.40
46752;DHT22;32497;48.936;9.270;2023-04-21T20:13:18;13.70;70.50
46752;DHT22;32497;48.936;9.270;2023-04-21T20:18:21;13.80;70.60
46752;DHT22;32497;48.936;9.270;2023-04-21T20:23:22;13.80;71.70
46752;DHT22;32497;48.936;9.270;2023-04-21T20:28:23;13.90;72.30
46752;DHT22;32497;48.936;9.270;2023-04-21T20:33:26;14.00;71.00
46752;DHT22;32497;48.936;9.270;2023-04-21T20:38:27;14.10;70.00
46752;DHT22;32497;48.936;9.270;2023-04-21T20:43:28;14.10;71.70
46752;DHT22;32497;48.936;9.270;2023-04-21T20:48:31;14.10;70.60
46752;DHT22;32497;48.936;9.270;2023-04-21T20:53:32;14.10;70.10
46752;DHT22;32497;48.936;9.270;2023-04-21T20:58:33;14.10;70.30
46752;DHT22;32497;48.936;9.270;2023-04-21T21:03:35;14.10;69.60
46752;DHT22;32497;48.936;9.270;2023-04-21T21:08:36;14.10;69.30
46752;DHT22;32497;48.936;9.270;2023-04-21T21:13:38;14.20;68.90
46752;DHT22;32497;48.936;9.270;2023-04-21T21:18:40;14.10;69.90
46752;DHT22;32497;48.936;9.270;2023-04-21T21:23:42;14.20;71.80
46752;DHT22;32497;48.936;9.270;2023-04-21T21:28:43;13.90;71.90
46752;DHT22;32497;48.936;9.270;2023-04-21T21:33:45;13.70;70.90
46752;DHT22;32497;48.936;9.270;2023-04-21T21:38:46;13.80;71.50
46752;DHT22;32497;48.936;9.270;2023-04-21T21:43:47;13.90;71.40
46752;DHT22;32497;48.936;9.270;2023-04-21T21:48:50;13.90;70.60
46752;DHT22;32497;48.936;9.270;2023-04-21T21:53:51;14.00;69.50
46752;DHT22;32497;48.936;9.270;2023-04-21T21:58:52;14.20;68.10
46752;DHT22;32497;48.936;9.270;2023-04-21T22:03:55;14.10;70.40
46752;DHT22;32497;48.936;9.270;2023-04-21T22:08:56;13.90;72.00
46752;DHT22;32497;48.936;9.270;2023-04-21T22:13:57;13.80;71.70
46752;DHT22;32497;48.936;9.270;2023-04-21T22:19:00;13.70;72.80
46752;DHT22;32497;48.936;9.270;2023-04-21T22:24:01;13.50;74.80
46752;DHT22;32497;48.936;9.270;2023-04-21T22:29:02;13.40;77.20
46752;DHT22;32497;48.936;9.270;2023-04-21T22:34:05;13.30;78.20
46752;DHT22;32497;48.936;9.270;2023-04-21T22:39:06;13.40;78.20
46752;DHT22;32497;48.936;9.270;2023-04-21T22:44:07;13.20;78.70
46752;DHT22;32497;48.936;9.270;2023-04-21T22:49:10;13.10;78.90
46752;DHT22;32497;48.936;9.270;2023-04-21T22:54:11;12.80;79.00
46752;DHT22;32497;48.936;9.270;2023-04-21T22:59:12;12.60;79.00
46752;DHT22;32497;48.936;9.270;2023-04-21T23:04:14;12.40;79.10
46752;DHT22;32497;48.936;9.270;2023-04-21T23:09:15;12.30;80.10
46752;DHT22;32497;48.936;9.270;2023-04-21T23:14:16;12.30;79.20
46752;DHT22;32497;48.936;9.270;2023-04-21T23:19:19;12.60;78.20
46752;DHT22;32497;48.936;9.270;2023-04-21T23:24:20;12.50;80.00
46752;DHT22;32497;48.936;9.270;2023-04-21T23:29:21;12.60;79.50
46752;DHT22;32497;48.936;9.270;2023-04-21T23:34:24;12.50;78.90
46752;DHT22;32497;48.936;9.270;2023-04-21T23:39:25;12.30;79.30
46752;DHT22;32497;48.936;9.270;2023-04-21T23:44:26;12.20;79.20
46752;DHT22;32497;48.936;9.270;2023-04-21T23:49:28;12.10;78.50
46752;DHT22;32497;48.936;9.270;2023-04-21T23:54:29;12.20;78.90
46752;DHT22;32497;48.936;9.270;2023-04-21T23:59:30;12.20;79.30
